Time;durP1;ratioP1;P1;durP2;ratioP2;P2;SDS_P1;SDS_P2;PMS_P1;PMS_P2;Temp;Humidity;BMP_temperature;BMP_pressure;BME280_temperature;BME280_humidity;BME280_pressure;Samples;Min_cycle;Max_cycle;Signal;HPM_P1;HPM_P2
2023/04/08 00:01:47;;;;;;;;;;;;;;;;;;5012154;28;20632;-68
2023/04/08 00:04:13;;;;;;;;;;;;;;;;;;5011937;28;20385;-66
2023/04/08 00:06:43;;;;;;;;;;;;;;;;;;5011728;28;20262;-68
2023/04/08 00:09:11;;;;;;;;;;;;;;;;;;4994844;28;19928;-68
2023/04/08 00:11:36;;;;;;;;;;;;;;;;;;5012877;28;20482;-68
2023/04/08 00:14:04;;;;;;;;;;;;;;;;;;4998664;28;20538;-69
2023/04/08 00:16:32;;;;;;;;;;;;;;;;;;5009980;28;19929;-68
2023/04/08 00:19:00;;;;;;;;;;;;;;;;;;4991405;28;20373;-66
2023/04/08 00:21:28;;;;;;;;;;;;;;;;;;4993468;28;19921;-68
2023/04/08 00:23:53;;;;;;;;;;;;;;;;;;4981594;28;20460;-66
2023/04/08 00:26:21;;;;;;;;;;;;;;;;;;4993429;28;19933;-69
2023/04/08 00:28:46;;;;;;;;;;;;;;;;;;4996020;28;19976;-69
2023/04/08 00:31:14;;;;;;;;;;;;;;;;;;4994839;28;19928;-69
2023/04/08 00:33:41;;;;;;;;;;;;;;;;;;5011891;28;19921;-68
2023/04/08 00:36:09;;;;;;;;;;;;;;;;;;4979093;28;19918;-67
2023/04/08 00:38:39;;;;;;;;;;;;;;;;;;4980425;28;19917;-67
2023/04/08 00:41:07;;;;;;;;;;;;;;;;;;4995091;28;20017;-68
2023/04/08 00:43:33;;;;;;;;;;;;;;;;;;5010980;28;19917;-68
2023/04/08 00:46:00;;;;;;;;;;;;;;;;;;5007312;28;20034;-68
2023/04/08 00:48:26;;;;;;;;;;;;;;;;;;5005931;28;20386;-68
2023/04/08 00:50:51;;;;;;;;;;;;;;;;;;4981505;28;19918;-68
2023/04/08 00:53:19;;;;;;;;;;;;;;;;;;4994969;28;19956;-68
2023/04/08 00:55:47;;;;;;;;;;;;;;;;;;4980822;28;20042;-68
2023/04/08 00:58:12;;;;;;;;;;;;;;;;;;4996379;28;20490;-69
2023/04/08 01:00:38;;;;;;;;;;;;;;;;;;5013062;28;19922;-70
2023/04/08 01:03:03;;;;;;;;;;;;;;;;;;5012980;28;19921;-68
2023/04/08 01:05:31;;;;;;;;;;;;;;;;;;4993032;28;19963;-70
2023/04/08 01:07:59;;;;;;;;;;;;;;;;;;5010202;28;19924;-67
2023/04/08 01:10:27;;;;;;;;;;;;;;;;;;4985232;28;19991;-68
2023/04/08 01:12:52;;;;;;;;;;;;;;;;;;5016078;28;19922;-69
2023/04/08 01:15:21;;;;;;;;;;;;;;;;;;5016015;28;19921;-68
2023/04/08 01:17:46;;;;;;;;;;;;;;;;;;4984392;28;19928;-67
2023/04/08 01:20:11;;;;;;;;;;;;;;;;;;5001113;28;19973;-69
2023/04/08 01:22:36;;;;;;;;;;;;;;;;;;4984133;28;20127;-69
2023/04/08 01:25:05;;;;;;;;;;;;;;;;;;5013925;28;19921;-69
2023/04/08 01:27:33;;;;;;;;;;;;;;;;;;5017203;28;19989;-68
2023/04/08 01:29:58;;;;;;;;;;;;;;;;;;5016662;28;19932;-69
2023/04/08 01:32:23;;;;;;;;;;;;;;;;;;5016296;28;20004;-69
2023/04/08 01:34:51;;;;;;;;;;;;;;;;;;5000032;28;20564;-69
2023/04/08 01:37:16;;;;;;;;;;;;;;;;;;5013020;28;19925;-69
2023/04/08 01:39:42;;;;;;;;;;;;;;;;;;5016339;28;19917;-68
2023/04/08 01:42:07;;;;;;;;;;;;;;;;;;4997904;28;19927;-69
2023/04/08 01:44:32;;;;;;;;;;;;;;;;;;5011589;28;19918;-69
2023/04/08 01:46:57;;;;;;;;;;;;;;;;;;5014104;28;19917;-68
2023/04/08 01:49:23;;;;;;;;;;;;;;;;;;5015616;28;20273;-68
2023/04/08 01:51:50;;;;;;;;;;;;;;;;;;5013725;28;20393;-68
2023/04/08 01:54:18;;;;;;;;;;;;;;;;;;4980679;28;19944;-69
2023/04/08 01:56:43;;;;;;;;;;;;;;;;;;4999427;28;20369;-69
2023/04/08 01:59:11;;;;;;;;;;;;;;;;;;4984279;28;19922;-69
2023/04/08 02:01:37;;;;;;;;;;;;;;;;;;4984785;28;20000;-68
2023/04/08 02:04:02;;;;;;;;;;;;;;;;;;5014684;28;19960;-68
2023/04/08 02:06:30;;;;;;;;;;;;;;;;;;5014908;28;20235;-70
2023/04/08 02:08:58;;;;;;;;;;;;;;;;;;5014396;28;20423;-70
2023/04/08 02:11:24;;;;;;;;;;;;;;;;;;5015170;28;19922;-69
2023/04/08 02:13:53;;;;;;;;;;;;;;;;;;4983403;28;19952;-69
2023/04/08 02:16:18;;;;;;;;;;;;;;;;;;5014702;28;20028;-69
2023/04/08 02:18:43;;;;;;;;;;;;;;;;;;4999828;28;19925;-69
2023/04/08 02:21:12;;;;;;;;;;;;;;;;;;5012512;28;19968;-69
2023/04/08 02:23:40;;;;;;;;;;;;;;;;;;4999520;28;20021;-70
2023/04/08 02:26:07;;;;;;;;;;;;;;;;;;4996560;28;19921;-68
2023/04/08 02:28:38;;;;;;;;;;;;;;;;;;5002359;28;19917;-69
2023/04/08 02:31:06;;;;;;;;;;;;;;;;;;4982996;28;19928;-69
2023/04/08 02:33:31;;;;;;;;;;;;;;;;;;4983236;28;19918;-69
2023/04/08 02:35:57;;;;;;;;;;;;;;;;;;4982706;28;19928;-69
2023/04/08 02:38:22;;;;;;;;;;;;;;;;;;4996859;28;20254;-68
2023/04/08 02:40:51;;;;;;;;;;;;;;;;;;5014697;28;19928;-68
2023/04/08 02:43:19;;;;;;;;;;;;;;;;;;4997813;28;19921;-69
2023/04/08 02:45:44;;;;;;;;;;;;;;;;;;5014975;28;20142;-69
2023/04/08 02:48:12;;;;;;;;;;;;;;;;;;4996908;28;19998;-69
2023/04/08 02:50:38;;;;;;;;;;;;;;;;;;5014980;28;19921;-70
2023/04/08 02:53:06;;;;;;;;;;;;;;;;;;5013428;28;19964;-70
2023/04/08 02:55:31;;;;;;;;;;;;;;;;;;5014361;28;20019;-70
2023/04/08 02:57:56;;;;;;;;;;;;;;;;;;5013512;28;19922;-69
2023/04/08 03:00:34;;;;;;;;;;;;;;;;;;5013891;28;19928;-69
2023/04/08 03:02:59;;;;;;;;;;;;;;;;;;5000522;28;20364;-69
2023/04/08 03:05:25;;;;;;;;;;;;;;;;;;4997415;28;20009;-69
2023/04/08 03:07:53;;;;;;;;;;;;;;;;;;5012379;28;19927;-69
2023/04/08 03:10:19;;;;;;;;;;;;;;;;;;4983725;28;19918;-69
2023/04/08 03:12:44;;;;;;;;;;;;;;;;;;5014185;28;19929;-69
2023/04/08 03:15:09;;;;;;;;;;;;;;;;;;5013597;28;19918;-69
2023/04/08 03:17:35;;;;;;;;;;;;;;;;;;4983960;28;19926;-70
2023/04/08 03:20:00;;;;;;;;;;;;;;;;;;5013760;28;20495;-69
2023/04/08 03:22:25;;;;;;;;;;;;;;;;;;5012563;28;19918;-69
2023/04/08 03:24:50;;;;;;;;;;;;;;;;;;4998770;28;19980;-70
2023/04/08 03:27:18;;;;;;;;;;;;;;;;;;4979980;28;20297;-68
2023/04/08 03:29:46;;;;;;;;;;;;;;;;;;4983044;28;19917;-68
2023/04/08 03:32:14;;;;;;;;;;;;;;;;;;5001383;28;19929;-68
2023/04/08 03:34:39;;;;;;;;;;;;;;;;;;4982374;28;20501;-70
2023/04/08 03:37:08;;;;;;;;;;;;;;;;;;5013730;28;19927;-68
2023/04/08 03:39:33;;;;;;;;;;;;;;;;;;5011083;28;20377;-68
2023/04/08 03:41:59;;;;;;;;;;;;;;;;;;5013659;28;19918;-69
2023/04/08 03:44:25;;;;;;;;;;;;;;;;;;4998441;28;20044;-70
2023/04/08 03:46:53;;;;;;;;;;;;;;;;;;5012752;28;20023;-68
2023/04/08 03:49:18;;;;;;;;;;;;;;;;;;5014439;28;20103;-69
2023/04/08 03:51:43;;;;;;;;;;;;;;;;;;5011830;28;19952;-70
2023/04/08 03:54:13;;;;;;;;;;;;;;;;;;4996645;28;19983;-69
2023/04/08 03:56:39;;;;;;;;;;;;;;;;;;5009749;28;19926;-69
2023/04/08 03:59:06;;;;;;;;;;;;;;;;;;4996718;28;19929;-70
2023/04/08 04:01:34;;;;;;;;;;;;;;;;;;5014044;28;19994;-69
2023/04/08 04:03:59;;;;;;;;;;;;;;;;;;4982796;28;19917;-69
2023/04/08 04:06:25;;;;;;;;;;;;;;;;;;5012167;28;19952;-69
2023/04/08 04:08:50;;;;;;;;;;;;;;;;;;5011779;28;20321;-69
2023/04/08 04:11:16;;;;;;;;;;;;;;;;;;5014558;28;19960;-69
2023/04/08 04:13:43;;;;;;;;;;;;;;;;;;4994871;28;19921;-69
2023/04/08 04:16:13;;;;;;;;;;;;;;;;;;4983047;28;19921;-69
2023/04/08 04:18:39;;;;;;;;;;;;;;;;;;4995726;28;19945;-69
2023/04/08 04:21:04;;;;;;;;;;;;;;;;;;5012518;28;19965;-72
2023/04/08 04:23:29;;;;;;;;;;;;;;;;;;4994792;28;20455;-70
2023/04/08 04:25:57;;;;;;;;;;;;;;;;;;5012497;28;19918;-70
2023/04/08 04:28:23;;;;;;;;;;;;;;;;;;4980811;28;19965;-70
2023/04/08 04:30:53;;;;;;;;;;;;;;;;;;4996622;28;20059;-70
2023/04/08 04:33:18;;;;;;;;;;;;;;;;;;5013593;28;20598;-70
2023/04/08 04:35:43;;;;;;;;;;;;;;;;;;4981146;28;20518;-70
2023/04/08 04:38:12;;;;;;;;;;;;;;;;;;5011922;28;20119;-70
2023/04/08 04:40:37;;;;;;;;;;;;;;;;;;5010207;28;20261;-70
2023/04/08 04:43:02;;;;;;;;;;;;;;;;;;5013676;28;19980;-70
2023/04/08 04:45:30;;;;;;;;;;;;;;;;;;5011885;28;20496;-69
2023/04/08 04:47:58;;;;;;;;;;;;;;;;;;5012119;28;19918;-70
2023/04/08 04:50:28;;;;;;;;;;;;;;;;;;4994744;28;20534;-71
2023/04/08 04:52:59;;;;;;;;;;;;;;;;;;4978399;28;19925;-69
2023/04/08 04:55:25;;;;;;;;;;;;;;;;;;5011456;28;19925;-70
2023/04/08 04:57:53;;;;;;;;;;;;;;;;;;5011805;28;19922;-70
2023/04/08 05:00:18;;;;;;;;;;;;;;;;;;5013318;28;19963;-69
2023/04/08 05:02:43;;;;;;;;;;;;;;;;;;5013046;28;19921;-70
2023/04/08 05:05:09;;;;;;;;;;;;;;;;;;4975660;28;20011;-70
2023/04/08 05:07:37;;;;;;;;;;;;;;;;;;4995151;28;20005;-69
2023/04/08 05:10:02;;;;;;;;;;;;;;;;;;4981654;28;20292;-68
2023/04/08 05:12:28;;;;;;;;;;;;;;;;;;4995405;28;20602;-68
2023/04/08 05:14:56;;;;;;;;;;;;;;;;;;4996329;28;19929;-70
2023/04/08 05:17:26;;;;;;;;;;;;;;;;;;4993552;28;19929;-70
2023/04/08 05:19:52;;;;;;;;;;;;;;;;;;5012439;28;19922;-69
2023/04/08 05:22:17;;;;;;;;;;;;;;;;;;4994145;28;20324;-69
2023/04/08 05:24:43;;;;;;;;;;;;;;;;;;4996535;28;20035;-69
2023/04/08 05:27:11;;;;;;;;;;;;;;;;;;5012299;28;20788;-68
2023/04/08 05:29:38;;;;;;;;;;;;;;;;;;4980131;28;20008;-69
2023/04/08 05:32:04;;;;;;;;;;;;;;;;;;4995299;28;19989;-69
2023/04/08 05:34:32;;;;;;;;;;;;;;;;;;4980080;28;19950;-70
2023/04/08 05:36:58;;;;;;;;;;;;;;;;;;4994370;28;19917;-69
2023/04/08 05:39:23;;;;;;;;;;;;;;;;;;5010374;28;19921;-69
2023/04/08 05:41:51;;;;;;;;;;;;;;;;;;4994048;28;20150;-70
2023/04/08 05:44:19;;;;;;;;;;;;;;;;;;4981178;28;20199;-70
2023/04/08 05:46:47;;;;;;;;;;;;;;;;;;5012314;28;21741;-70
2023/04/08 05:49:12;;;;;;;;;;;;;;;;;;4982044;28;19917;-70
2023/04/08 05:51:40;;;;;;;;;;;;;;;;;;4994043;28;20071;-70
2023/04/08 05:54:08;;;;;;;;;;;;;;;;;;4995499;28;19922;-70
2023/04/08 05:56:36;;;;;;;;;;;;;;;;;;4997126;28;20551;-70
2023/04/08 05:59:02;;;;;;;;;;;;;;;;;;5010893;28;19949;-70
2023/04/08 06:01:30;;;;;;;;;;;;;;;;;;5016666;28;19928;-69
2023/04/08 06:03:55;;;;;;;;;;;;;;;;;;5000348;28;19917;-70
2023/04/08 06:06:21;;;;;;;;;;;;;;;;;;4983182;28;20339;-70
2023/04/08 06:08:46;;;;;;;;;;;;;;;;;;5014801;28;19917;-70
2023/04/08 06:11:14;;;;;;;;;;;;;;;;;;4996693;28;19928;-70
2023/04/08 06:13:41;;;;;;;;;;;;;;;;;;4998525;28;20008;-70
2023/04/08 06:16:11;;;;;;;;;;;;;;;;;;5011659;28;19918;-69
2023/04/08 06:18:39;;;;;;;;;;;;;;;;;;5015543;28;20056;-70
2023/04/08 06:21:07;;;;;;;;;;;;;;;;;;4997309;28;20072;-70
2023/04/08 06:23:35;;;;;;;;;;;;;;;;;;4979439;28;20437;-68
2023/04/08 06:26:04;;;;;;;;;;;;;;;;;;5015325;28;20021;-70
2023/04/08 06:28:31;;;;;;;;;;;;;;;;;;4981388;28;20400;-70
2023/04/08 06:30:57;;;;;;;;;;;;;;;;;;5002145;28;19917;-69
2023/04/08 06:33:25;;;;;;;;;;;;;;;;;;4997478;28;19922;-69
2023/04/08 06:35:50;;;;;;;;;;;;;;;;;;4999987;28;19922;-68
2023/04/08 06:38:16;;;;;;;;;;;;;;;;;;4996772;28;21769;-69
2023/04/08 06:40:41;;;;;;;;;;;;;;;;;;4983636;28;19928;-68
2023/04/08 06:43:07;;;;;;;;;;;;;;;;;;4997352;28;20545;-68
2023/04/08 06:45:38;;;;;;;;;;;;;;;;;;4996926;28;20017;-69
2023/04/08 06:48:03;;;;;;;;;;;;;;;;;;4999998;28;19974;-69
2023/04/08 06:50:28;;;;;;;;;;;;;;;;;;4996738;28;20875;-68
2023/04/08 06:52:56;;;;;;;;;;;;;;;;;;4979203;28;19971;-69
2023/04/08 06:55:22;;;;;;;;;;;;;;;;;;4996250;28;20012;-69
2023/04/08 06:57:48;;;;;;;;;;;;;;;;;;4994370;28;20415;-68
2023/04/08 07:00:14;;;;;;;;;;;;;;;;;;5014912;28;19921;-67
2023/04/08 07:02:39;;;;;;;;;;;;;;;;;;4997785;28;19918;-69
2023/04/08 07:05:05;;;;;;;;;;;;;;;;;;4983611;28;19921;-70
2023/04/08 07:07:31;;;;;;;;;;;;;;;;;;5013209;28;20306;-68
2023/04/08 07:09:56;;;;;;;;;;;;;;;;;;4995481;28;19945;-69
2023/04/08 07:12:24;;;;;;;;;;;;;;;;;;4996830;28;19921;-69
2023/04/08 07:14:50;;;;;;;;;;;;;;;;;;5014603;28;19964;-71
2023/04/08 07:17:19;;;;;;;;;;;;;;;;;;4999521;28;19921;-69
2023/04/08 07:19:44;;;;;;;;;;;;;;;;;;4983475;28;19969;-69
2023/04/08 07:22:12;;;;;;;;;;;;;;;;;;5013376;28;20513;-69
2023/04/08 07:24:42;;;;;;;;;;;;;;;;;;5013501;28;20456;-69
2023/04/08 07:27:07;;;;;;;;;;;;;;;;;;5013815;28;19937;-68
2023/04/08 07:29:33;;;;;;;;;;;;;;;;;;4997750;28;20397;-68
2023/04/08 07:32:00;;;;;;;;;;;;;;;;;;5012825;28;19943;-70
2023/04/08 07:34:26;;;;;;;;;;;;;;;;;;5013281;28;20188;-69
2023/04/08 07:36:51;;;;;;;;;;;;;;;;;;4982555;28;19932;-69
2023/04/08 07:39:16;;;;;;;;;;;;;;;;;;5013904;28;20396;-68
2023/04/08 07:41:41;;;;;;;;;;;;;;;;;;5012666;28;19945;-69
2023/04/08 07:44:07;;;;;;;;;;;;;;;;;;4984828;28;20485;-68
2023/04/08 07:46:35;;;;;;;;;;;;;;;;;;5010492;28;19924;-69
2023/04/08 07:49:03;;;;;;;;;;;;;;;;;;4998474;28;19917;-70
2023/04/08 07:51:34;;;;;;;;;;;;;;;;;;4994466;28;20454;-69
2023/04/08 08:32:10;;;;;;;;;;;;;;;;;;5016548;28;20011;-69
2023/04/08 08:34:36;;;;;;;;;;;;;;;;;;5018582;28;19921;-70
2023/04/08 08:37:03;;;;;;;;;;;;;;;;;;5020424;28;20486;-69
2023/04/08 08:39:31;;;;;;;;;;;;;;;;;;5016956;28;19925;-68
2023/04/08 08:42:01;;;;;;;;;;;;;;;;;;5033336;28;20384;-69
2023/04/08 08:44:27;;;;;;;;;;;;;;;;;;5036734;28;19916;-69
2023/04/08 08:46:57;;;;;;;;;;;;;;;;;;5034331;28;20675;-71
2023/04/08 08:49:22;;;;;;;;;;;;;;;;;;5019209;28;20402;-70
2023/04/08 08:51:49;;;;;;;;;;;;;;;;;;5016645;28;19916;-70
2023/04/08 08:54:14;;;;;;;;;;;;;;;;;;5022481;28;19929;-70
2023/04/08 08:56:45;;;;;;;;;;;;;;;;;;5017946;28;21519;-69
2023/04/08 08:59:11;;;;;;;;;;;;;;;;;;5035692;28;19925;-69
2023/04/08 09:01:42;;;;;;;;;;;;;;;;;;5034419;28;19928;-69
2023/04/08 09:04:11;;;;;;;;;;;;;;;;;;5034527;28;19928;-70
2023/04/08 09:06:36;;;;;;;;;;;;;;;;;;5034538;28;19917;-70
2023/04/08 09:09:04;;;;;;;;;;;;;;;;;;5017847;28;19921;-69
2023/04/08 09:11:30;;;;;;;;;;;;;;;;;;5019093;28;19920;-68
2023/04/08 09:13:58;;;;;;;;;;;;;;;;;;5019649;28;19974;-69
2023/04/08 09:16:23;;;;;;;;;;;;;;;;;;5018699;28;19968;-69
2023/04/08 09:18:49;;;;;;;;;;;;;;;;;;5035940;28;20046;-69
2023/04/08 09:21:15;;;;;;;;;;;;;;;;;;5019303;28;20309;-69
2023/04/08 09:23:41;;;;;;;;;;;;;;;;;;5018770;28;20059;-70
2023/04/08 09:26:06;;;;;;;;;;;;;;;;;;5034526;28;20426;-70
2023/04/08 09:28:37;;;;;;;;;;;;;;;;;;5003944;28;20035;-70
2023/04/08 09:31:03;;;;;;;;;;;;;;;;;;5032192;28;20536;-69
2023/04/08 09:33:28;;;;;;;;;;;;;;;;;;5023290;28;19927;-71
2023/04/08 09:35:53;;;;;;;;;;;;;;;;;;5023328;28;19928;-65
2023/04/08 09:38:19;;;;;;;;;;;;;;;;;;5019337;28;20368;-70
2023/04/08 09:40:44;;;;;;;;;;;;;;;;;;5019926;28;20625;-69
2023/04/08 09:43:10;;;;;;;;;;;;;;;;;;5024814;28;20008;-69
2023/04/08 09:45:35;;;;;;;;;;;;;;;;;;5039808;28;19956;-69
2023/04/08 09:48:03;;;;;;;;;;;;;;;;;;5037989;28;19956;-69
2023/04/08 09:50:30;;;;;;;;;;;;;;;;;;5020285;28;19940;-70
2023/04/08 09:53:01;;;;;;;;;;;;;;;;;;5038059;28;19916;-68
2023/04/08 09:55:35;;;;;;;;;;;;;;;;;;5019033;28;19968;-69
2023/04/08 09:58:01;;;;;;;;;;;;;;;;;;5037913;28;20495;-67
2023/04/08 10:00:26;;;;;;;;;;;;;;;;;;5023515;28;19917;-70
2023/04/08 10:03:00;;;;;;;;;;;;;;;;;;5009079;28;20036;-70
2023/04/08 10:05:26;;;;;;;;;;;;;;;;;;5037700;28;19921;-70
2023/04/08 10:07:54;;;;;;;;;;;;;;;;;;5024648;28;20383;-71
2023/04/08 10:10:19;;;;;;;;;;;;;;;;;;5037617;28;19921;-70
2023/04/08 10:12:48;;;;;;;;;;;;;;;;;;5020975;28;20379;-70
2023/04/08 10:15:13;;;;;;;;;;;;;;;;;;5024828;28;20024;-71
2023/04/08 10:17:38;;;;;;;;;;;;;;;;;;5022097;28;19925;-70
2023/04/08 10:20:04;;;;;;;;;;;;;;;;;;5023435;28;19920;-68
2023/04/08 10:22:29;;;;;;;;;;;;;;;;;;5036780;28;20371;-72
2023/04/08 10:24:59;;;;;;;;;;;;;;;;;;5034167;28;19917;-69
2023/04/08 10:27:24;;;;;;;;;;;;;;;;;;5020775;28;19917;-70
2023/04/08 10:29:50;;;;;;;;;;;;;;;;;;5005592;28;20376;-71
2023/04/08 10:32:18;;;;;;;;;;;;;;;;;;5037007;28;20343;-70
2023/04/08 10:34:46;;;;;;;;;;;;;;;;;;5025016;28;19923;-70
2023/04/08 10:37:12;;;;;;;;;;;;;;;;;;5035146;28;19921;-69
2023/04/08 10:39:37;;;;;;;;;;;;;;;;;;5037599;28;20378;-68
2023/04/08 10:42:03;;;;;;;;;;;;;;;;;;5037764;28;19970;-69
2023/04/08 10:44:31;;;;;;;;;;;;;;;;;;5022347;28;19917;-69
2023/04/08 10:47:00;;;;;;;;;;;;;;;;;;5023277;28;19921;-70
2023/04/08 10:49:27;;;;;;;;;;;;;;;;;;5021362;28;20509;-69
2023/04/08 10:51:55;;;;;;;;;;;;;;;;;;5018997;28;19920;-71
2023/04/08 10:54:23;;;;;;;;;;;;;;;;;;5024383;28;19920;-69
2023/04/08 10:56:54;;;;;;;;;;;;;;;;;;5036750;28;20012;-69
2023/04/08 10:59:19;;;;;;;;;;;;;;;;;;5020273;28;19927;-71
2023/04/08 11:01:47;;;;;;;;;;;;;;;;;;5022625;28;19924;-70
2023/04/08 11:04:12;;;;;;;;;;;;;;;;;;5036733;28;19989;-68
2023/04/08 11:06:41;;;;;;;;;;;;;;;;;;5018193;28;19971;-70
2023/04/08 11:09:06;;;;;;;;;;;;;;;;;;5004708;28;20429;-69
2023/04/08 11:11:32;;;;;;;;;;;;;;;;;;5037560;28;19920;-69
2023/04/08 11:14:01;;;;;;;;;;;;;;;;;;5023829;28;19921;-70
2023/04/08 11:16:29;;;;;;;;;;;;;;;;;;5037588;28;19923;-70
2023/04/08 11:18:56;;;;;;;;;;;;;;;;;;5020848;28;20011;-70
2023/04/08 11:21:28;;;;;;;;;;;;;;;;;;5022232;28;19928;-68
2023/04/08 11:23:56;;;;;;;;;;;;;;;;;;5036941;28;20487;-69
2023/04/08 11:26:21;;;;;;;;;;;;;;;;;;5036033;28;20324;-69
2023/04/08 11:28:50;;;;;;;;;;;;;;;;;;5037641;28;20492;-70
2023/04/08 11:31:18;;;;;;;;;;;;;;;;;;5010526;28;20200;-69
2023/04/08 11:33:47;;;;;;;;;;;;;;;;;;5000265;28;20291;-70
2023/04/08 11:36:12;;;;;;;;;;;;;;;;;;4996720;28;19921;-68
2023/04/08 11:38:37;;;;;;;;;;;;;;;;;;4999646;28;20460;-69
2023/04/08 11:41:03;;;;;;;;;;;;;;;;;;4976138;28;20561;-69
2023/04/08 11:43:28;;;;;;;;;;;;;;;;;;5017912;28;20604;-70
2023/04/08 11:45:55;;;;;;;;;;;;;;;;;;4997877;28;20231;-69
2023/04/08 11:48:20;;;;;;;;;;;;;;;;;;5014087;28;19971;-65
2023/04/08 11:50:50;;;;;;;;;;;;;;;;;;5000197;28;19917;-70
2023/04/08 11:53:17;;;;;;;;;;;;;;;;;;4996292;28;19983;-71
2023/04/08 11:55:45;;;;;;;;;;;;;;;;;;5008780;28;19921;-69
2023/04/08 11:58:13;;;;;;;;;;;;;;;;;;5014630;28;20061;-69
2023/04/08 12:00:41;;;;;;;;;;;;;;;;;;5017511;28;19922;-70
2023/04/08 12:03:06;;;;;;;;;;;;;;;;;;4998385;28;19963;-70
2023/04/08 12:05:35;;;;;;;;;;;;;;;;;;4997274;28;22182;-70
2023/04/08 12:08:00;;;;;;;;;;;;;;;;;;5016015;28;20345;-68
2023/04/08 12:10:28;;;;;;;;;;;;;;;;;;4997351;28;20075;-69
2023/04/08 12:12:53;;;;;;;;;;;;;;;;;;5016692;28;20372;-70
2023/04/08 12:15:19;;;;;;;;;;;;;;;;;;5017605;28;19940;-70
2023/04/08 12:17:44;;;;;;;;;;;;;;;;;;5015061;28;20056;-70
2023/04/08 12:20:09;;;;;;;;;;;;;;;;;;5000041;28;20015;-68
2023/04/08 12:22:35;;;;;;;;;;;;;;;;;;5015210;28;19917;-69
2023/04/08 12:25:03;;;;;;;;;;;;;;;;;;5001802;28;20344;-70
2023/04/08 12:27:32;;;;;;;;;;;;;;;;;;5014379;28;19921;-67
2023/04/08 12:29:57;;;;;;;;;;;;;;;;;;5016689;28;19928;-70
2023/04/08 12:32:25;;;;;;;;;;;;;;;;;;5030751;28;19925;-71
2023/04/08 12:34:50;;;;;;;;;;;;;;;;;;5034997;28;20355;-69
2023/04/08 12:37:19;;;;;;;;;;;;;;;;;;5049661;28;20286;-68
2023/04/08 12:39:48;;;;;;;;;;;;;;;;;;5018877;28;19921;-69
2023/04/08 12:42:16;;;;;;;;;;;;;;;;;;5052005;28;20517;-68
2023/04/08 12:44:41;;;;;;;;;;;;;;;;;;5052148;28;20460;-69
2023/04/08 12:47:12;;;;;;;;;;;;;;;;;;5034408;28;20391;-69
2023/04/08 12:49:40;;;;;;;;;;;;;;;;;;5052962;28;20011;-70
2023/04/08 12:52:08;;;;;;;;;;;;;;;;;;5019279;28;19917;-68
2023/04/08 12:54:34;;;;;;;;;;;;;;;;;;5039180;28;20423;-71
2023/04/08 12:57:00;;;;;;;;;;;;;;;;;;5036379;28;20520;-69
2023/04/08 12:59:32;;;;;;;;;;;;;;;;;;5050866;28;19925;-69
2023/04/08 13:02:00;;;;;;;;;;;;;;;;;;5034596;28;20513;-71
2023/04/08 13:04:29;;;;;;;;;;;;;;;;;;5019405;28;19998;-70
2023/04/08 13:06:55;;;;;;;;;;;;;;;;;;5054994;28;19924;-71
2023/04/08 13:09:23;;;;;;;;;;;;;;;;;;5039446;28;21511;-69
2023/04/08 13:11:51;;;;;;;;;;;;;;;;;;5040079;28;19964;-70
2023/04/08 13:14:16;;;;;;;;;;;;;;;;;;5023031;28;19960;-71
2023/04/08 13:16:44;;;;;;;;;;;;;;;;;;5054925;28;20015;-69
2023/04/08 13:19:14;;;;;;;;;;;;;;;;;;5023553;28;19936;-69
2023/04/08 13:21:42;;;;;;;;;;;;;;;;;;5054486;28;20502;-70
2023/04/08 13:24:10;;;;;;;;;;;;;;;;;;5055646;28;19921;-70
2023/04/08 13:26:36;;;;;;;;;;;;;;;;;;5039903;28;19921;-71
2023/04/08 13:29:01;;;;;;;;;;;;;;;;;;5055235;28;19952;-70
2023/04/08 13:31:26;;;;;;;;;;;;;;;;;;5054995;28;20313;-70
2023/04/08 13:33:54;;;;;;;;;;;;;;;;;;5037961;28;20429;-70
2023/04/08 13:36:20;;;;;;;;;;;;;;;;;;5054375;28;19917;-70
2023/04/08 13:38:45;;;;;;;;;;;;;;;;;;5056057;28;19968;-70
2023/04/08 13:41:10;;;;;;;;;;;;;;;;;;5055275;28;20284;-70
2023/04/08 13:43:36;;;;;;;;;;;;;;;;;;5055450;28;20402;-68
2023/04/08 13:46:01;;;;;;;;;;;;;;;;;;5024152;28;19950;-70
2023/04/08 13:48:26;;;;;;;;;;;;;;;;;;5038001;28;20525;-68
2023/04/08 13:50:54;;;;;;;;;;;;;;;;;;5054131;28;20452;-68
2023/04/08 13:53:20;;;;;;;;;;;;;;;;;;5022656;28;19920;-70
2023/04/08 13:55:45;;;;;;;;;;;;;;;;;;5035029;28;20533;-69
2023/04/08 13:58:10;;;;;;;;;;;;;;;;;;5054891;28;20395;-71
2023/04/08 14:00:38;;;;;;;;;;;;;;;;;;5038562;28;19960;-70
2023/04/08 14:03:03;;;;;;;;;;;;;;;;;;5040356;28;19917;-70
2023/04/08 14:05:29;;;;;;;;;;;;;;;;;;5055797;28;19916;-70
2023/04/08 14:07:54;;;;;;;;;;;;;;;;;;5038442;28;19959;-71
2023/04/08 14:10:19;;;;;;;;;;;;;;;;;;5051613;28;19921;-71
2023/04/08 14:12:50;;;;;;;;;;;;;;;;;;5055469;28;19931;-71
2023/04/08 14:15:18;;;;;;;;;;;;;;;;;;5021086;28;20276;-72
2023/04/08 14:17:48;;;;;;;;;;;;;;;;;;5053405;28;20387;-70
2023/04/08 14:20:13;;;;;;;;;;;;;;;;;;5039195;28;19920;-69
2023/04/08 14:22:39;;;;;;;;;;;;;;;;;;5035285;28;19928;-70
2023/04/08 14:25:06;;;;;;;;;;;;;;;;;;5055520;28;19921;-70
2023/04/08 14:27:32;;;;;;;;;;;;;;;;;;5023731;28;20299;-70
2023/04/08 14:29:57;;;;;;;;;;;;;;;;;;5024548;28;19963;-71
2023/04/08 14:32:25;;;;;;;;;;;;;;;;;;5053987;28;19960;-71
2023/04/08 14:34:53;;;;;;;;;;;;;;;;;;5037721;28;20008;-70
2023/04/08 14:37:18;;;;;;;;;;;;;;;;;;5037352;28;19928;-70
2023/04/08 14:39:46;;;;;;;;;;;;;;;;;;5036347;28;19921;-70
2023/04/08 14:42:16;;;;;;;;;;;;;;;;;;5021022;28;20510;-70
2023/04/08 14:44:46;;;;;;;;;;;;;;;;;;5052852;28;20175;-71
2023/04/08 14:47:12;;;;;;;;;;;;;;;;;;5055701;28;19928;-70
2023/04/08 14:49:37;;;;;;;;;;;;;;;;;;5033275;28;19917;-69
2023/04/08 14:52:05;;;;;;;;;;;;;;;;;;5018169;28;19924;-70
2023/04/08 14:54:33;;;;;;;;;;;;;;;;;;5051412;28;19921;-71
2023/04/08 14:57:01;;;;;;;;;;;;;;;;;;5035703;28;19979;-70
2023/04/08 14:59:26;;;;;;;;;;;;;;;;;;5022152;28;20012;-70
2023/04/08 15:01:52;;;;;;;;;;;;;;;;;;5053133;28;19966;-69
2023/04/08 15:04:20;;;;;;;;;;;;;;;;;;5036835;28;19917;-70
2023/04/08 15:06:45;;;;;;;;;;;;;;;;;;5038013;28;19920;-70
2023/04/08 15:09:13;;;;;;;;;;;;;;;;;;5021254;28;19971;-71
2023/04/08 15:11:41;;;;;;;;;;;;;;;;;;5036001;28;19936;-71
2023/04/08 15:14:06;;;;;;;;;;;;;;;;;;5034048;28;21587;-70
2023/04/08 15:16:34;;;;;;;;;;;;;;;;;;5038281;28;19970;-69
2023/04/08 15:19:04;;;;;;;;;;;;;;;;;;5053900;28;19925;-69
2023/04/08 15:21:30;;;;;;;;;;;;;;;;;;5036671;28;20357;-70
2023/04/08 15:23:58;;;;;;;;;;;;;;;;;;5021662;28;19924;-69
2023/04/08 15:26:23;;;;;;;;;;;;;;;;;;5047600;28;20629;-71
2023/04/08 15:28:54;;;;;;;;;;;;;;;;;;5021352;28;19929;-71
2023/04/08 15:31:21;;;;;;;;;;;;;;;;;;5052005;28;19925;-69
2023/04/08 15:33:50;;;;;;;;;;;;;;;;;;5024506;28;21321;-69
2023/04/08 15:36:18;;;;;;;;;;;;;;;;;;5019387;28;19967;-70
2023/04/08 15:38:43;;;;;;;;;;;;;;;;;;5023624;28;19916;-69
2023/04/08 15:41:11;;;;;;;;;;;;;;;;;;5034592;28;20119;-70
2023/04/08 15:43:40;;;;;;;;;;;;;;;;;;5053751;28;19967;-69
2023/04/08 15:46:05;;;;;;;;;;;;;;;;;;5052651;28;20475;-70
2023/04/08 15:48:36;;;;;;;;;;;;;;;;;;5034242;28;19931;-71
2023/04/08 15:51:01;;;;;;;;;;;;;;;;;;5034076;28;19924;-71
2023/04/08 15:53:29;;;;;;;;;;;;;;;;;;5031409;28;20362;-70
2023/04/08 15:55:55;;;;;;;;;;;;;;;;;;5035996;28;20412;-70
2023/04/08 15:58:28;;;;;;;;;;;;;;;;;;5021409;28;20315;-70
2023/04/08 16:00:56;;;;;;;;;;;;;;;;;;5025055;28;19917;-70
2023/04/08 16:03:21;;;;;;;;;;;;;;;;;;5020408;28;19917;-71
2023/04/08 16:05:47;;;;;;;;;;;;;;;;;;5037133;28;21371;-71
2023/04/08 16:08:12;;;;;;;;;;;;;;;;;;5034550;28;20387;-71
2023/04/08 16:10:37;;;;;;;;;;;;;;;;;;5037071;28;19924;-68
2023/04/08 16:13:06;;;;;;;;;;;;;;;;;;5053973;28;19947;-70
2023/04/08 16:15:32;;;;;;;;;;;;;;;;;;5036680;28;19921;-70
2023/04/08 16:18:01;;;;;;;;;;;;;;;;;;5020538;28;19920;-69
2023/04/08 16:20:29;;;;;;;;;;;;;;;;;;5020207;28;20396;-70
2023/04/08 16:22:56;;;;;;;;;;;;;;;;;;5020762;28;19924;-71
2023/04/08 16:25:22;;;;;;;;;;;;;;;;;;5051304;28;19920;-70
2023/04/08 16:27:47;;;;;;;;;;;;;;;;;;5033865;28;20295;-70
2023/04/08 16:30:16;;;;;;;;;;;;;;;;;;5049918;28;20314;-70
2023/04/08 16:32:43;;;;;;;;;;;;;;;;;;5034413;28;20157;-70
2023/04/08 16:35:15;;;;;;;;;;;;;;;;;;5052608;28;19979;-68
2023/04/08 16:37:41;;;;;;;;;;;;;;;;;;5017092;28;19921;-70
2023/04/08 16:40:06;;;;;;;;;;;;;;;;;;5036307;28;19979;-70
2023/04/08 16:42:31;;;;;;;;;;;;;;;;;;5019895;28;20164;-70
2023/04/08 16:44:58;;;;;;;;;;;;;;;;;;5034320;28;19932;-71
2023/04/08 16:47:26;;;;;;;;;;;;;;;;;;5018860;28;20144;-70
2023/04/08 16:49:51;;;;;;;;;;;;;;;;;;5038399;28;19921;-70
2023/04/08 16:52:17;;;;;;;;;;;;;;;;;;5033971;28;19957;-70
2023/04/08 16:54:43;;;;;;;;;;;;;;;;;;5052367;28;19928;-69
2023/04/08 16:57:08;;;;;;;;;;;;;;;;;;5035120;28;19921;-70
2023/04/08 16:59:36;;;;;;;;;;;;;;;;;;5019694;28;20049;-68
2023/04/08 17:02:06;;;;;;;;;;;;;;;;;;5050888;28;20467;-70
2023/04/08 17:04:34;;;;;;;;;;;;;;;;;;5036301;28;20505;-70
2023/04/08 17:07:02;;;;;;;;;;;;;;;;;;5019387;28;20815;-69
2023/04/08 17:09:30;;;;;;;;;;;;;;;;;;5033078;28;19925;-69
2023/04/08 17:11:56;;;;;;;;;;;;;;;;;;5019105;28;19917;-68
2023/04/08 17:14:24;;;;;;;;;;;;;;;;;;5051895;28;19921;-70
2023/04/08 17:16:49;;;;;;;;;;;;;;;;;;5050807;28;20016;-69
2023/04/08 17:19:17;;;;;;;;;;;;;;;;;;5034295;28;20370;-69
2023/04/08 17:21:42;;;;;;;;;;;;;;;;;;5019261;28;19928;-70